sensor_id;sensor_type;location;lat;lon;timestamp;P1;durP1;ratioP1;P2;durP2;ratioP2
23826;SDS011;12094;50.822;4.376;2022-07-03T00:00:48;9.10;;;2.20;;
23826;SDS011;12094;50.822;4.376;2022-07-03T00:03:15;6.75;;;2.10;;
23826;SDS011;12094;50.822;4.376;2022-07-03T00:05:43;6.80;;;1.98;;
23826;SDS011;12094;50.822;4.376;2022-07-03T00:08:10;6.88;;;2.13;;
23826;SDS011;12094;50.822;4.376;2022-07-03T00:10:39;6.78;;;2.10;;
23826;SDS011;12094;50.822;4.376;2022-07-03T00:13:11;6.57;;;1.88;;
23826;SDS011;12094;50.822;4.376;2022-07-03T00:15:38;5.45;;;1.85;;
23826;SDS011;12094;50.822;4.376;2022-07-03T00:18:05;3.70;;;2.10;;
23826;SDS011;12094;50.822;4.376;2022-07-03T00:20:37;6.07;;;2.10;;
23826;SDS011;12094;50.822;4.376;2022-07-03T00:23:12;5.55;;;1.90;;
23826;SDS011;12094;50.822;4.376;2022-07-03T00:25:46;5.40;;;1.80;;
23826;SDS011;12094;50.822;4.376;2022-07-03T00:28:16;5.40;;;1.60;;
23826;SDS011;12094;50.822;4.376;2022-07-03T00:30:46;4.97;;;2.05;;
23826;SDS011;12094;50.822;4.376;2022-07-03T00:33:15;6.80;;;1.83;;
23826;SDS011;12094;50.822;4.376;2022-07-03T00:35:42;8.18;;;1.75;;
23826;SDS011;12094;50.822;4.376;2022-07-03T00:38:12;7.15;;;1.65;;
23826;SDS011;12094;50.822;4.376;2022-07-03T00:40:43;4.83;;;1.67;;
23826;SDS011;12094;50.822;4.376;2022-07-03T00:43:10;4.07;;;1.70;;
23826;SDS011;12094;50.822;4.376;2022-07-03T00:45:48;4.55;;;1.80;;
23826;SDS011;12094;50.822;4.376;2022-07-03T00:48:17;5.25;;;1.88;;
23826;SDS011;12094;50.822;4.376;2022-07-03T00:50:48;8.68;;;1.73;;
23826;SDS011;12094;50.822;4.376;2022-07-03T00:53:19;3.58;;;1.55;;
23826;SDS011;12094;50.822;4.376;2022-07-03T00:55:55;3.97;;;1.30;;
23826;SDS011;12094;50.822;4.376;2022-07-03T00:58:22;5.75;;;1.58;;
23826;SDS011;12094;50.822;4.376;2022-07-03T01:00:51;6.47;;;1.83;;
23826;SDS011;12094;50.822;4.376;2022-07-03T01:03:20;5.78;;;1.80;;
23826;SDS011;12094;50.822;4.376;2022-07-03T01:05:53;4.72;;;1.60;;
23826;SDS011;12094;50.822;4.376;2022-07-03T01:14:03;5.85;;;2.20;;
23826;SDS011;12094;50.822;4.376;2022-07-03T01:17:01;6.60;;;1.80;;
23826;SDS011;12094;50.822;4.376;2022-07-03T01:19:46;3.90;;;1.85;;
23826;SDS011;12094;50.822;4.376;2022-07-03T01:30:55;3.70;;;1.70;;
23826;SDS011;12094;50.822;4.376;2022-07-03T01:33:25;3.67;;;1.50;;
23826;SDS011;12094;50.822;4.376;2022-07-03T01:36:06;7.63;;;1.60;;
23826;SDS011;12094;50.822;4.376;2022-07-03T01:38:35;4.65;;;1.60;;
23826;SDS011;12094;50.822;4.376;2022-07-03T01:41:06;4.20;;;1.83;;
23826;SDS011;12094;50.822;4.376;2022-07-03T01:43:39;7.72;;;1.65;;
23826;SDS011;12094;50.822;4.376;2022-07-03T01:46:13;6.65;;;1.50;;
23826;SDS011;12094;50.822;4.376;2022-07-03T01:48:44;4.55;;;1.33;;
23826;SDS011;12094;50.822;4.376;2022-07-03T01:51:13;6.63;;;1.63;;
23826;SDS011;12094;50.822;4.376;2022-07-03T01:53:52;5.90;;;1.35;;
23826;SDS011;12094;50.822;4.376;2022-07-03T01:56:20;4.32;;;1.70;;
23826;SDS011;12094;50.822;4.376;2022-07-03T01:58:58;4.88;;;1.58;;
23826;SDS011;12094;50.822;4.376;2022-07-03T02:01:28;7.45;;;1.65;;
23826;SDS011;12094;50.822;4.376;2022-07-03T02:04:04;4.53;;;1.40;;
23826;SDS011;12094;50.822;4.376;2022-07-03T02:09:45;4.95;;;1.70;;
23826;SDS011;12094;50.822;4.376;2022-07-03T02:12:18;3.53;;;1.50;;
23826;SDS011;12094;50.822;4.376;2022-07-03T02:14:53;5.20;;;2.00;;
23826;SDS011;12094;50.822;4.376;2022-07-03T02:17:32;2.83;;;1.30;;
23826;SDS011;12094;50.822;4.376;2022-07-03T02:20:10;4.65;;;1.60;;
23826;SDS011;12094;50.822;4.376;2022-07-03T02:22:41;4.47;;;1.58;;
23826;SDS011;12094;50.822;4.376;2022-07-03T02:25:15;4.35;;;1.30;;
23826;SDS011;12094;50.822;4.376;2022-07-03T02:27:57;7.45;;;1.55;;
23826;SDS011;12094;50.822;4.376;2022-07-03T02:30:30;4.80;;;1.60;;
23826;SDS011;12094;50.822;4.376;2022-07-03T02:33:02;4.22;;;1.70;;
23826;SDS011;12094;50.822;4.376;2022-07-03T02:35:31;5.05;;;1.80;;
23826;SDS011;12094;50.822;4.376;2022-07-03T02:38:18;3.45;;;1.55;;
23826;SDS011;12094;50.822;4.376;2022-07-03T02:46:34;2.60;;;1.83;;
23826;SDS011;12094;50.822;4.376;2022-07-03T02:57:36;2.40;;;1.38;;
23826;SDS011;12094;50.822;4.376;2022-07-03T03:00:08;7.43;;;1.60;;
23826;SDS011;12094;50.822;4.376;2022-07-03T03:05:30;5.18;;;1.38;;
23826;SDS011;12094;50.822;4.376;2022-07-03T03:11:09;2.90;;;1.48;;
23826;SDS011;12094;50.822;4.376;2022-07-03T03:13:50;3.90;;;1.48;;
23826;SDS011;12094;50.822;4.376;2022-07-03T03:16:25;4.10;;;1.77;;
23826;SDS011;12094;50.822;4.376;2022-07-03T03:18:54;7.85;;;1.95;;
23826;SDS011;12094;50.822;4.376;2022-07-03T03:21:22;7.38;;;1.80;;
23826;SDS011;12094;50.822;4.376;2022-07-03T03:23:52;6.63;;;2.58;;
23826;SDS011;12094;50.822;4.376;2022-07-03T03:28:46;6.25;;;2.25;;
23826;SDS011;12094;50.822;4.376;2022-07-03T03:31:15;3.85;;;1.95;;
23826;SDS011;12094;50.822;4.376;2022-07-03T03:33:44;4.60;;;2.00;;
23826;SDS011;12094;50.822;4.376;2022-07-03T03:36:15;6.75;;;2.20;;
23826;SDS011;12094;50.822;4.376;2022-07-03T03:38:47;6.97;;;1.95;;
23826;SDS011;12094;50.822;4.376;2022-07-03T03:41:16;7.43;;;2.10;;
23826;SDS011;12094;50.822;4.376;2022-07-03T03:43:44;6.55;;;1.67;;
23826;SDS011;12094;50.822;4.376;2022-07-03T03:46:12;3.35;;;1.80;;
23826;SDS011;12094;50.822;4.376;2022-07-03T03:48:42;4.90;;;1.67;;
23826;SDS011;12094;50.822;4.376;2022-07-03T03:51:12;4.55;;;1.90;;
23826;SDS011;12094;50.822;4.376;2022-07-03T03:53:39;4.90;;;1.90;;
23826;SDS011;12094;50.822;4.376;2022-07-03T03:56:08;3.50;;;1.77;;
23826;SDS011;12094;50.822;4.376;2022-07-03T03:58:38;4.47;;;1.77;;
23826;SDS011;12094;50.822;4.376;2022-07-03T04:01:10;4.75;;;1.67;;
23826;SDS011;12094;50.822;4.376;2022-07-03T04:03:38;5.07;;;1.75;;
23826;SDS011;12094;50.822;4.376;2022-07-03T04:06:08;4.20;;;1.58;;
23826;SDS011;12094;50.822;4.376;2022-07-03T04:08:35;3.38;;;1.80;;
23826;SDS011;12094;50.822;4.376;2022-07-03T04:11:04;6.88;;;1.80;;
23826;SDS011;12094;50.822;4.376;2022-07-03T04:13:35;3.35;;;1.65;;
23826;SDS011;12094;50.822;4.376;2022-07-03T04:16:03;4.20;;;1.70;;
23826;SDS011;12094;50.822;4.376;2022-07-03T04:18:31;2.53;;;1.58;;
23826;SDS011;12094;50.822;4.376;2022-07-03T04:21:01;3.20;;;1.65;;
23826;SDS011;12094;50.822;4.376;2022-07-03T04:23:31;4.28;;;1.70;;
23826;SDS011;12094;50.822;4.376;2022-07-03T04:26:03;5.72;;;1.70;;
23826;SDS011;12094;50.822;4.376;2022-07-03T04:28:32;5.63;;;1.55;;
23826;SDS011;12094;50.822;4.376;2022-07-03T04:30:59;3.90;;;1.30;;
23826;SDS011;12094;50.822;4.376;2022-07-03T04:33:27;4.13;;;1.67;;
23826;SDS011;12094;50.822;4.376;2022-07-03T04:36:00;4.50;;;1.65;;
23826;SDS011;12094;50.822;4.376;2022-07-03T04:38:32;3.38;;;1.90;;
23826;SDS011;12094;50.822;4.376;2022-07-03T04:41:16;2.10;;;1.40;;
23826;SDS011;12094;50.822;4.376;2022-07-03T04:47:50;2.55;;;1.40;;
23826;SDS011;12094;50.822;4.376;2022-07-03T04:50:20;3.35;;;1.63;;
23826;SDS011;12094;50.822;4.376;2022-07-03T04:52:49;3.05;;;1.83;;
23826;SDS011;12094;50.822;4.376;2022-07-03T04:55:20;6.93;;;1.77;;
23826;SDS011;12094;50.822;4.376;2022-07-03T05:04:45;3.13;;;1.75;;
23826;SDS011;12094;50.822;4.376;2022-07-03T05:14:36;10.23;;;1.92;;
23826;SDS011;12094;50.822;4.376;2022-07-03T05:17:04;5.90;;;2.30;;
23826;SDS011;12094;50.822;4.376;2022-07-03T05:19:31;4.80;;;1.80;;
23826;SDS011;12094;50.822;4.376;2022-07-03T05:21:58;3.58;;;1.80;;
23826;SDS011;12094;50.822;4.376;2022-07-03T05:24:25;5.97;;;2.10;;
23826;SDS011;12094;50.822;4.376;2022-07-03T05:26:52;3.47;;;2.00;;
23826;SDS011;12094;50.822;4.376;2022-07-03T05:29:20;5.07;;;2.17;;
23826;SDS011;12094;50.822;4.376;2022-07-03T05:31:48;4.20;;;2.38;;
23826;SDS011;12094;50.822;4.376;2022-07-03T05:34:15;7.75;;;2.53;;
23826;SDS011;12094;50.822;4.376;2022-07-03T05:39:19;5.10;;;2.30;;
23826;SDS011;12094;50.822;4.376;2022-07-03T05:42:04;4.85;;;2.25;;
23826;SDS011;12094;50.822;4.376;2022-07-03T05:44:32;6.32;;;2.35;;
23826;SDS011;12094;50.822;4.376;2022-07-03T05:47:17;4.82;;;2.10;;
23826;SDS011;12094;50.822;4.376;2022-07-03T05:52:16;11.23;;;2.65;;
23826;SDS011;12094;50.822;4.376;2022-07-03T05:54:43;4.55;;;2.00;;
23826;SDS011;12094;50.822;4.376;2022-07-03T05:57:11;4.95;;;2.08;;
23826;SDS011;12094;50.822;4.376;2022-07-03T05:59:58;7.10;;;2.58;;
23826;SDS011;12094;50.822;4.376;2022-07-03T06:02:27;10.20;;;2.60;;
23826;SDS011;12094;50.822;4.376;2022-07-03T06:04:55;6.40;;;2.75;;
23826;SDS011;12094;50.822;4.376;2022-07-03T06:07:22;7.05;;;2.78;;
23826;SDS011;12094;50.822;4.376;2022-07-03T06:09:50;7.22;;;3.03;;
23826;SDS011;12094;50.822;4.376;2022-07-03T06:12:18;4.43;;;2.88;;
23826;SDS011;12094;50.822;4.376;2022-07-03T06:17:33;4.78;;;2.90;;
23826;SDS011;12094;50.822;4.376;2022-07-03T06:22:35;9.82;;;2.50;;
23826;SDS011;12094;50.822;4.376;2022-07-03T06:25:06;7.90;;;2.25;;
23826;SDS011;12094;50.822;4.376;2022-07-03T06:27:37;6.68;;;2.63;;
23826;SDS011;12094;50.822;4.376;2022-07-03T06:30:07;4.38;;;2.35;;
23826;SDS011;12094;50.822;4.376;2022-07-03T06:32:35;8.30;;;2.83;;
23826;SDS011;12094;50.822;4.376;2022-07-03T06:35:05;4.28;;;2.50;;
23826;SDS011;12094;50.822;4.376;2022-07-03T06:37:33;3.00;;;2.03;;
23826;SDS011;12094;50.822;4.376;2022-07-03T06:40:03;6.47;;;2.22;;
23826;SDS011;12094;50.822;4.376;2022-07-03T06:42:33;8.80;;;2.15;;
23826;SDS011;12094;50.822;4.376;2022-07-03T06:45:07;5.95;;;2.13;;
23826;SDS011;12094;50.822;4.376;2022-07-03T06:47:38;5.40;;;2.60;;
23826;SDS011;12094;50.822;4.376;2022-07-03T06:50:06;4.95;;;2.38;;
23826;SDS011;12094;50.822;4.376;2022-07-03T06:52:34;5.43;;;2.38;;
23826;SDS011;12094;50.822;4.376;2022-07-03T06:55:01;5.60;;;2.13;;
23826;SDS011;12094;50.822;4.376;2022-07-03T06:57:30;8.43;;;2.47;;
23826;SDS011;12094;50.822;4.376;2022-07-03T06:59:58;4.28;;;2.42;;
23826;SDS011;12094;50.822;4.376;2022-07-03T07:02:25;6.30;;;2.40;;
23826;SDS011;12094;50.822;4.376;2022-07-03T07:04:52;5.97;;;2.50;;
23826;SDS011;12094;50.822;4.376;2022-07-03T07:07:19;7.18;;;2.92;;
23826;SDS011;12094;50.822;4.376;2022-07-03T07:09:47;8.00;;;2.78;;
23826;SDS011;12094;50.822;4.376;2022-07-03T07:12:17;6.38;;;2.70;;
23826;SDS011;12094;50.822;4.376;2022-07-03T07:14:46;8.18;;;2.67;;
23826;SDS011;12094;50.822;4.376;2022-07-03T07:17:16;4.93;;;2.88;;
23826;SDS011;12094;50.822;4.376;2022-07-03T07:19:44;10.63;;;2.72;;
23826;SDS011;12094;50.822;4.376;2022-07-03T07:22:16;4.45;;;2.85;;
23826;SDS011;12094;50.822;4.376;2022-07-03T07:24:43;4.43;;;2.17;;
23826;SDS011;12094;50.822;4.376;2022-07-03T07:27:11;8.60;;;2.72;;
23826;SDS011;12094;50.822;4.376;2022-07-03T07:29:38;6.82;;;2.67;;
23826;SDS011;12094;50.822;4.376;2022-07-03T07:32:09;8.30;;;2.95;;
23826;SDS011;12094;50.822;4.376;2022-07-03T07:34:36;7.82;;;3.55;;
23826;SDS011;12094;50.822;4.376;2022-07-03T07:37:04;9.95;;;3.85;;
23826;SDS011;12094;50.822;4.376;2022-07-03T07:39:32;7.55;;;3.28;;
23826;SDS011;12094;50.822;4.376;2022-07-03T07:42:01;8.05;;;3.00;;
23826;SDS011;12094;50.822;4.376;2022-07-03T07:44:29;6.10;;;3.38;;
23826;SDS011;12094;50.822;4.376;2022-07-03T07:46:56;5.68;;;3.25;;
23826;SDS011;12094;50.822;4.376;2022-07-03T07:49:23;5.50;;;3.15;;
23826;SDS011;12094;50.822;4.376;2022-07-03T07:51:50;6.03;;;3.38;;
23826;SDS011;12094;50.822;4.376;2022-07-03T07:54:21;7.78;;;3.55;;
23826;SDS011;12094;50.822;4.376;2022-07-03T07:57:01;6.35;;;4.00;;
23826;SDS011;12094;50.822;4.376;2022-07-03T07:59:28;9.35;;;3.63;;
23826;SDS011;12094;50.822;4.376;2022-07-03T08:01:56;8.23;;;3.42;;
23826;SDS011;12094;50.822;4.376;2022-07-03T08:04:50;6.75;;;3.75;;
23826;SDS011;12094;50.822;4.376;2022-07-03T08:07:36;9.43;;;3.70;;
23826;SDS011;12094;50.822;4.376;2022-07-03T08:10:03;7.82;;;3.67;;
23826;SDS011;12094;50.822;4.376;2022-07-03T08:12:33;6.88;;;3.17;;
23826;SDS011;12094;50.822;4.376;2022-07-03T08:15:01;4.88;;;3.30;;
23826;SDS011;12094;50.822;4.376;2022-07-03T08:17:30;6.90;;;3.00;;
23826;SDS011;12094;50.822;4.376;2022-07-03T08:19:57;10.65;;;2.90;;
23826;SDS011;12094;50.822;4.376;2022-07-03T08:22:27;6.28;;;3.05;;
23826;SDS011;12094;50.822;4.376;2022-07-03T08:24:55;6.13;;;2.45;;
23826;SDS011;12094;50.822;4.376;2022-07-03T08:27:22;9.85;;;2.92;;
23826;SDS011;12094;50.822;4.376;2022-07-03T08:29:54;4.15;;;2.72;;
23826;SDS011;12094;50.822;4.376;2022-07-03T08:32:21;7.90;;;3.00;;
23826;SDS011;12094;50.822;4.376;2022-07-03T08:34:49;8.18;;;3.08;;
23826;SDS011;12094;50.822;4.376;2022-07-03T08:37:18;7.57;;;2.50;;
23826;SDS011;12094;50.822;4.376;2022-07-03T08:39:47;6.82;;;2.85;;
23826;SDS011;12094;50.822;4.376;2022-07-03T08:42:19;5.88;;;2.70;;
23826;SDS011;12094;50.822;4.376;2022-07-03T08:44:48;8.57;;;2.20;;
23826;SDS011;12094;50.822;4.376;2022-07-03T08:47:18;4.38;;;2.20;;
23826;SDS011;12094;50.822;4.376;2022-07-03T08:49:48;4.40;;;2.08;;
23826;SDS011;12094;50.822;4.376;2022-07-03T08:52:21;4.60;;;1.90;;
23826;SDS011;12094;50.822;4.376;2022-07-03T08:54:49;3.72;;;1.67;;
23826;SDS011;12094;50.822;4.376;2022-07-03T08:57:41;3.95;;;1.63;;
23826;SDS011;12094;50.822;4.376;2022-07-03T09:00:13;6.80;;;1.53;;
23826;SDS011;12094;50.822;4.376;2022-07-03T09:02:47;5.97;;;1.70;;
23826;SDS011;12094;50.822;4.376;2022-07-03T09:05:16;4.18;;;1.77;;
23826;SDS011;12094;50.822;4.376;2022-07-03T09:07:45;6.07;;;1.75;;
23826;SDS011;12094;50.822;4.376;2022-07-03T09:10:16;3.15;;;1.80;;
23826;SDS011;12094;50.822;4.376;2022-07-03T09:12:48;4.43;;;1.75;;
23826;SDS011;12094;50.822;4.376;2022-07-03T09:15:18;5.28;;;1.23;;
23826;SDS011;12094;50.822;4.376;2022-07-03T09:20:33;5.10;;;1.92;;
23826;SDS011;12094;50.822;4.376;2022-07-03T09:25:52;3.15;;;1.48;;
23826;SDS011;12094;50.822;4.376;2022-07-03T09:31:21;7.13;;;1.20;;
23826;SDS011;12094;50.822;4.376;2022-07-03T09:33:59;2.65;;;1.20;;
23826;SDS011;12094;50.822;4.376;2022-07-03T09:39:14;3.13;;;1.10;;
23826;SDS011;12094;50.822;4.376;2022-07-03T09:49:44;1.50;;;0.95;;
23826;SDS011;12094;50.822;4.376;2022-07-03T09:52:41;4.68;;;1.13;;
23826;SDS011;12094;50.822;4.376;2022-07-03T09:57:45;3.78;;;1.20;;
23826;SDS011;12094;50.822;4.376;2022-07-03T10:00:22;2.97;;;1.20;;
23826;SDS011;12094;50.822;4.376;2022-07-03T10:05:40;4.22;;;1.10;;
23826;SDS011;12094;50.822;4.376;2022-07-03T10:08:09;4.47;;;1.50;;
23826;SDS011;12094;50.822;4.376;2022-07-03T10:10:40;2.85;;;1.08;;
23826;SDS011;12094;50.822;4.376;2022-07-03T10:13:08;1.27;;;0.95;;
23826;SDS011;12094;50.822;4.376;2022-07-03T10:15:37;2.47;;;0.95;;
23826;SDS011;12094;50.822;4.376;2022-07-03T10:18:10;1.67;;;0.80;;
23826;SDS011;12094;50.822;4.376;2022-07-03T10:20:46;1.90;;;0.60;;
23826;SDS011;12094;50.822;4.376;2022-07-03T10:23:19;2.20;;;0.80;;
23826;SDS011;12094;50.822;4.376;2022-07-03T10:25:49;1.70;;;0.90;;
23826;SDS011;12094;50.822;4.376;2022-07-03T10:28:17;4.78;;;1.20;;
23826;SDS011;12094;50.822;4.376;2022-07-03T10:30:48;3.78;;;1.02;;
23826;SDS011;12094;50.822;4.376;2022-07-03T10:33:16;2.05;;;0.88;;
23826;SDS011;12094;50.822;4.376;2022-07-03T10:35:54;1.88;;;0.88;;
23826;SDS011;12094;50.822;4.376;2022-07-03T10:38:38;2.63;;;1.23;;
23826;SDS011;12094;50.822;4.376;2022-07-03T10:44:09;2.78;;;1.00;;
23826;SDS011;12094;50.822;4.376;2022-07-03T10:53:27;3.67;;;1.33;;
23826;SDS011;12094;50.822;4.376;2022-07-03T10:56:03;2.70;;;1.10;;
23826;SDS011;12094;50.822;4.376;2022-07-03T11:01:28;5.15;;;0.90;;
23826;SDS011;12094;50.822;4.376;2022-07-03T11:04:00;3.40;;;1.40;;
23826;SDS011;12094;50.822;4.376;2022-07-03T11:09:15;2.00;;;1.05;;
23826;SDS011;12094;50.822;4.376;2022-07-03T11:11:48;2.65;;;0.90;;
23826;SDS011;12094;50.822;4.376;2022-07-03T11:14:23;3.15;;;1.10;;
23826;SDS011;12094;50.822;4.376;2022-07-03T11:17:16;3.00;;;1.23;;
23826;SDS011;12094;50.822;4.376;2022-07-03T11:19:49;3.67;;;1.00;;
23826;SDS011;12094;50.822;4.376;2022-07-03T11:25:17;3.95;;;1.17;;
23826;SDS011;12094;50.822;4.376;2022-07-03T11:27:48;7.68;;;1.30;;
23826;SDS011;12094;50.822;4.376;2022-07-03T11:30:16;2.97;;;1.08;;
23826;SDS011;12094;50.822;4.376;2022-07-03T11:32:51;5.75;;;1.08;;
23826;SDS011;12094;50.822;4.376;2022-07-03T11:38:24;2.72;;;0.90;;
23826;SDS011;12094;50.822;4.376;2022-07-03T11:40:55;4.22;;;1.05;;
23826;SDS011;12094;50.822;4.376;2022-07-03T11:43:25;3.70;;;0.90;;
23826;SDS011;12094;50.822;4.376;2022-07-03T11:45:52;3.08;;;0.90;;
23826;SDS011;12094;50.822;4.376;2022-07-03T11:48:22;5.35;;;1.02;;
23826;SDS011;12094;50.822;4.376;2022-07-03T11:50:50;3.42;;;1.35;;
23826;SDS011;12094;50.822;4.376;2022-07-03T11:53:26;4.30;;;0.98;;
23826;SDS011;12094;50.822;4.376;2022-07-03T11:56:14;3.30;;;1.17;;
23826;SDS011;12094;50.822;4.376;2022-07-03T11:58:46;1.90;;;0.82;;
23826;SDS011;12094;50.822;4.376;2022-07-03T12:06:42;4.18;;;1.33;;
23826;SDS011;12094;50.822;4.376;2022-07-03T12:12:05;2.63;;;0.82;;
23826;SDS011;12094;50.822;4.376;2022-07-03T12:14:59;2.65;;;0.80;;
23826;SDS011;12094;50.822;4.376;2022-07-03T12:17:32;4.00;;;0.77;;
23826;SDS011;12094;50.822;4.376;2022-07-03T12:20:00;2.03;;;0.77;;
23826;SDS011;12094;50.822;4.376;2022-07-03T12:22:34;3.70;;;1.00;;
23826;SDS011;12094;50.822;4.376;2022-07-03T12:25:08;2.45;;;0.60;;
23826;SDS011;12094;50.822;4.376;2022-07-03T12:27:44;3.20;;;0.90;;
23826;SDS011;12094;50.822;4.376;2022-07-03T12:30:12;1.70;;;0.80;;
23826;SDS011;12094;50.822;4.376;2022-07-03T12:32:54;3.73;;;1.07;;
23826;SDS011;12094;50.822;4.376;2022-07-03T12:35:23;3.00;;;0.70;;
23826;SDS011;12094;50.822;4.376;2022-07-03T12:37:51;2.65;;;0.70;;
23826;SDS011;12094;50.822;4.376;2022-07-03T12:40:18;3.85;;;0.82;;
23826;SDS011;12094;50.822;4.376;2022-07-03T12:42:50;5.30;;;0.98;;
23826;SDS011;12094;50.822;4.376;2022-07-03T12:45:20;6.30;;;0.90;;
23826;SDS011;12094;50.822;4.376;2022-07-03T12:48:00;5.65;;;0.70;;
23826;SDS011;12094;50.822;4.376;2022-07-03T12:57:14;4.05;;;0.77;;
23826;SDS011;12094;50.822;4.376;2022-07-03T13:00:13;4.93;;;1.23;;
23826;SDS011;12094;50.822;4.376;2022-07-03T13:02:49;3.13;;;1.00;;
23826;SDS011;12094;50.822;4.376;2022-07-03T13:05:18;4.75;;;0.70;;
23826;SDS011;12094;50.822;4.376;2022-07-03T13:07:54;5.07;;;1.20;;
23826;SDS011;12094;50.822;4.376;2022-07-03T13:10:26;3.25;;;0.75;;
23826;SDS011;12094;50.822;4.376;2022-07-03T13:12:55;3.38;;;1.05;;
23826;SDS011;12094;50.822;4.376;2022-07-03T13:15:27;2.90;;;0.80;;
23826;SDS011;12094;50.822;4.376;2022-07-03T13:20:51;3.75;;;0.82;;
23826;SDS011;12094;50.822;4.376;2022-07-03T13:23:19;3.53;;;1.00;;
23826;SDS011;12094;50.822;4.376;2022-07-03T13:25:46;4.32;;;1.15;;
23826;SDS011;12094;50.822;4.376;2022-07-03T13:28:13;4.43;;;0.90;;
23826;SDS011;12094;50.822;4.376;2022-07-03T13:30:42;4.78;;;0.80;;
23826;SDS011;12094;50.822;4.376;2022-07-03T13:33:09;2.33;;;0.90;;
23826;SDS011;12094;50.822;4.376;2022-07-03T13:38:33;2.67;;;0.70;;
23826;SDS011;12094;50.822;4.376;2022-07-03T13:41:00;5.97;;;1.00;;
23826;SDS011;12094;50.822;4.376;2022-07-03T13:43:27;4.28;;;0.80;;
23826;SDS011;12094;50.822;4.376;2022-07-03T13:45:55;3.20;;;0.80;;
23826;SDS011;12094;50.822;4.376;2022-07-03T13:48:22;5.18;;;0.82;;
23826;SDS011;12094;50.822;4.376;2022-07-03T13:50:52;3.33;;;0.90;;
23826;SDS011;12094;50.822;4.376;2022-07-03T13:53:25;6.57;;;1.25;;
23826;SDS011;12094;50.822;4.376;2022-07-03T14:01:24;4.03;;;1.08;;
23826;SDS011;12094;50.822;4.376;2022-07-03T14:03:56;2.90;;;0.80;;
23826;SDS011;12094;50.822;4.376;2022-07-03T14:06:23;5.90;;;1.05;;
23826;SDS011;12094;50.822;4.376;2022-07-03T14:08:53;4.93;;;1.02;;
23826;SDS011;12094;50.822;4.376;2022-07-03T14:11:20;5.53;;;0.70;;
23826;SDS011;12094;50.822;4.376;2022-07-03T14:13:47;3.35;;;0.80;;
23826;SDS011;12094;50.822;4.376;2022-07-03T14:16:15;2.78;;;0.75;;
23826;SDS011;12094;50.822;4.376;2022-07-03T14:18:43;3.80;;;0.93;;
23826;SDS011;12094;50.822;4.376;2022-07-03T14:21:11;2.05;;;0.80;;
23826;SDS011;12094;50.822;4.376;2022-07-03T14:26:34;3.22;;;0.90;;
23826;SDS011;12094;50.822;4.376;2022-07-03T14:29:22;5.90;;;0.80;;
23826;SDS011;12094;50.822;4.376;2022-07-03T14:32:13;3.58;;;0.80;;
23826;SDS011;12094;50.822;4.376;2022-07-03T14:34:57;2.97;;;0.90;;
23826;SDS011;12094;50.822;4.376;2022-07-03T14:37:24;1.30;;;0.70;;
23826;SDS011;12094;50.822;4.376;2022-07-03T14:39:52;5.03;;;0.90;;
23826;SDS011;12094;50.822;4.376;2022-07-03T14:42:26;6.13;;;0.90;;
23826;SDS011;12094;50.822;4.376;2022-07-03T14:44:59;3.67;;;0.77;;
23826;SDS011;12094;50.822;4.376;2022-07-03T14:47:29;3.35;;;0.70;;
23826;SDS011;12094;50.822;4.376;2022-07-03T14:50:05;4.38;;;0.98;;
23826;SDS011;12094;50.822;4.376;2022-07-03T14:52:53;3.88;;;0.80;;
23826;SDS011;12094;50.822;4.376;2022-07-03T14:55:23;2.75;;;0.70;;
23826;SDS011;12094;50.822;4.376;2022-07-03T14:58:15;6.72;;;1.90;;
23826;SDS011;12094;50.822;4.376;2022-07-03T15:00:50;5.88;;;1.85;;
23826;SDS011;12094;50.822;4.376;2022-07-03T15:03:34;7.75;;;1.80;;
23826;SDS011;12094;50.822;4.376;2022-07-03T15:06:07;4.97;;;1.67;;
23826;SDS011;12094;50.822;4.376;2022-07-03T15:08:43;5.43;;;1.00;;
23826;SDS011;12094;50.822;4.376;2022-07-03T15:14:20;4.60;;;1.00;;
23826;SDS011;12094;50.822;4.376;2022-07-03T15:16:51;3.38;;;0.75;;
23826;SDS011;12094;50.822;4.376;2022-07-03T15:19:20;3.88;;;0.90;;
23826;SDS011;12094;50.822;4.376;2022-07-03T15:21:51;2.45;;;0.75;;
23826;SDS011;12094;50.822;4.376;2022-07-03T15:24:21;4.03;;;0.85;;
23826;SDS011;12094;50.822;4.376;2022-07-03T15:26:54;5.15;;;1.10;;
23826;SDS011;12094;50.822;4.376;2022-07-03T15:29:23;2.35;;;0.90;;
23826;SDS011;12094;50.822;4.376;2022-07-03T15:31:51;4.63;;;0.85;;
23826;SDS011;12094;50.822;4.376;2022-07-03T15:41:26;2.45;;;0.77;;
23826;SDS011;12094;50.822;4.376;2022-07-03T15:51:09;1.75;;;0.60;;
23826;SDS011;12094;50.822;4.376;2022-07-03T15:53:57;6.55;;;0.80;;
23826;SDS011;12094;50.822;4.376;2022-07-03T15:56:34;2.33;;;0.60;;
23826;SDS011;12094;50.822;4.376;2022-07-03T15:59:03;3.00;;;0.80;;
23826;SDS011;12094;50.822;4.376;2022-07-03T16:05:06;3.13;;;1.00;;
23826;SDS011;12094;50.822;4.376;2022-07-03T16:08:47;1.90;;;0.80;;
23826;SDS011;12094;50.822;4.376;2022-07-03T16:11:56;4.97;;;0.90;;
23826;SDS011;12094;50.822;4.376;2022-07-03T16:15:02;4.03;;;0.80;;
23826;SDS011;12094;50.822;4.376;2022-07-03T16:18:16;5.95;;;0.90;;
23826;SDS011;12094;50.822;4.376;2022-07-03T16:20:45;2.67;;;0.90;;
23826;SDS011;12094;50.822;4.376;2022-07-03T16:23:17;4.75;;;0.80;;
23826;SDS011;12094;50.822;4.376;2022-07-03T16:25:46;3.85;;;0.75;;
23826;SDS011;12094;50.822;4.376;2022-07-03T16:28:13;3.28;;;1.10;;
23826;SDS011;12094;50.822;4.376;2022-07-03T16:30:45;4.00;;;0.80;;
23826;SDS011;12094;50.822;4.376;2022-07-03T16:33:14;3.58;;;0.88;;
23826;SDS011;12094;50.822;4.376;2022-07-03T16:35:50;1.88;;;0.98;;
23826;SDS011;12094;50.822;4.376;2022-07-03T16:38:30;4.05;;;1.48;;
23826;SDS011;12094;50.822;4.376;2022-07-03T16:41:05;3.22;;;1.10;;
23826;SDS011;12094;50.822;4.376;2022-07-03T16:43:33;6.07;;;1.17;;
23826;SDS011;12094;50.822;4.376;2022-07-03T16:46:07;3.75;;;1.00;;
23826;SDS011;12094;50.822;4.376;2022-07-03T16:48:46;4.45;;;1.20;;
23826;SDS011;12094;50.822;4.376;2022-07-03T16:51:17;3.90;;;1.25;;
23826;SDS011;12094;50.822;4.376;2022-07-03T16:53:49;2.70;;;0.80;;
23826;SDS011;12094;50.822;4.376;2022-07-03T16:56:19;2.88;;;1.20;;
23826;SDS011;12094;50.822;4.376;2022-07-03T16:58:46;2.30;;;1.02;;
23826;SDS011;12094;50.822;4.376;2022-07-03T17:01:17;4.25;;;1.15;;
23826;SDS011;12094;50.822;4.376;2022-07-03T17:03:45;3.97;;;0.85;;
23826;SDS011;12094;50.822;4.376;2022-07-03T17:06:14;4.47;;;1.00;;
23826;SDS011;12094;50.822;4.376;2022-07-03T17:08:42;3.42;;;0.90;;
23826;SDS011;12094;50.822;4.376;2022-07-03T17:11:10;3.75;;;1.10;;
23826;SDS011;12094;50.822;4.376;2022-07-03T17:13:37;5.00;;;1.50;;
23826;SDS011;12094;50.822;4.376;2022-07-03T17:16:05;4.90;;;1.08;;
23826;SDS011;12094;50.822;4.376;2022-07-03T17:18:56;4.43;;;1.20;;
23826;SDS011;12094;50.822;4.376;2022-07-03T17:21:29;3.90;;;1.10;;
23826;SDS011;12094;50.822;4.376;2022-07-03T17:23:56;4.88;;;1.30;;
23826;SDS011;12094;50.822;4.376;2022-07-03T17:26:26;4.18;;;1.00;;
23826;SDS011;12094;50.822;4.376;2022-07-03T17:29:02;2.13;;;0.93;;
23826;SDS011;12094;50.822;4.376;2022-07-03T17:31:33;5.57;;;0.98;;
23826;SDS011;12094;50.822;4.376;2022-07-03T17:34:05;10.25;;;1.30;;
23826;SDS011;12094;50.822;4.376;2022-07-03T17:36:35;3.70;;;1.20;;
23826;SDS011;12094;50.822;4.376;2022-07-03T17:39:06;5.90;;;1.20;;
23826;SDS011;12094;50.822;4.376;2022-07-03T17:41:34;2.58;;;0.80;;
23826;SDS011;12094;50.822;4.376;2022-07-03T17:44:03;2.78;;;0.73;;
23826;SDS011;12094;50.822;4.376;2022-07-03T17:46:31;4.00;;;1.00;;
23826;SDS011;12094;50.822;4.376;2022-07-03T17:48:58;4.32;;;0.93;;
23826;SDS011;12094;50.822;4.376;2022-07-03T17:51:27;5.15;;;0.80;;
23826;SDS011;12094;50.822;4.376;2022-07-03T17:54:02;2.45;;;0.73;;
23826;SDS011;12094;50.822;4.376;2022-07-03T17:56:29;4.00;;;0.77;;
23826;SDS011;12094;50.822;4.376;2022-07-03T17:58:59;3.35;;;0.75;;
23826;SDS011;12094;50.822;4.376;2022-07-03T18:01:30;3.88;;;0.85;;